sensor_id;sensor_type;location;lat;lon;timestamp;P1;durP1;ratioP1;P2;durP2;ratioP2
9082;SDS011;4577;48.704;9.000;2022-12-07T00:01:20;12.17;;;8.30;;
9082;SDS011;4577;48.704;9.000;2022-12-07T00:03:49;10.97;;;8.17;;
9082;SDS011;4577;48.704;9.000;2022-12-07T00:06:16;12.03;;;8.33;;
9082;SDS011;4577;48.704;9.000;2022-12-07T00:08:42;14.77;;;9.10;;
9082;SDS011;4577;48.704;9.000;2022-12-07T00:11:13;14.07;;;9.07;;
9082;SDS011;4577;48.704;9.000;2022-12-07T00:13:40;11.60;;;7.50;;
9082;SDS011;4577;48.704;9.000;2022-12-07T00:16:12;12.10;;;7.67;;
9082;SDS011;4577;48.704;9.000;2022-12-07T00:18:40;15.63;;;9.10;;
9082;SDS011;4577;48.704;9.000;2022-12-07T00:21:11;12.13;;;8.90;;
9082;SDS011;4577;48.704;9.000;2022-12-07T00:23:38;14.30;;;9.20;;
9082;SDS011;4577;48.704;9.000;2022-12-07T00:26:08;14.50;;;8.80;;
9082;SDS011;4577;48.704;9.000;2022-12-07T00:28:34;16.50;;;9.43;;
9082;SDS011;4577;48.704;9.000;2022-12-07T00:31:01;15.30;;;9.63;;
9082;SDS011;4577;48.704;9.000;2022-12-07T00:33:32;13.20;;;9.10;;
9082;SDS011;4577;48.704;9.000;2022-12-07T00:35:59;14.10;;;9.40;;
9082;SDS011;4577;48.704;9.000;2022-12-07T00:38:26;13.40;;;9.80;;
9082;SDS011;4577;48.704;9.000;2022-12-07T00:40:55;15.27;;;8.87;;
9082;SDS011;4577;48.704;9.000;2022-12-07T00:43:21;14.47;;;9.60;;
9082;SDS011;4577;48.704;9.000;2022-12-07T00:45:46;13.50;;;9.23;;
9082;SDS011;4577;48.704;9.000;2022-12-07T00:48:12;14.80;;;10.20;;
9082;SDS011;4577;48.704;9.000;2022-12-07T00:50:38;15.10;;;9.87;;
9082;SDS011;4577;48.704;9.000;2022-12-07T00:53:04;15.97;;;10.17;;
9082;SDS011;4577;48.704;9.000;2022-12-07T00:55:33;13.20;;;9.50;;
9082;SDS011;4577;48.704;9.000;2022-12-07T00:57:59;17.03;;;10.10;;
9082;SDS011;4577;48.704;9.000;2022-12-07T01:00:25;15.27;;;10.30;;
9082;SDS011;4577;48.704;9.000;2022-12-07T01:02:51;14.40;;;10.13;;
9082;SDS011;4577;48.704;9.000;2022-12-07T01:05:17;14.83;;;10.07;;
9082;SDS011;4577;48.704;9.000;2022-12-07T01:07:43;18.80;;;10.17;;
9082;SDS011;4577;48.704;9.000;2022-12-07T01:10:09;15.23;;;10.40;;
9082;SDS011;4577;48.704;9.000;2022-12-07T01:12:35;15.43;;;9.93;;
9082;SDS011;4577;48.704;9.000;2022-12-07T01:15:01;15.27;;;10.50;;
9082;SDS011;4577;48.704;9.000;2022-12-07T01:17:28;18.50;;;9.93;;
9082;SDS011;4577;48.704;9.000;2022-12-07T01:19:54;14.00;;;10.07;;
9082;SDS011;4577;48.704;9.000;2022-12-07T01:22:20;17.23;;;9.83;;
9082;SDS011;4577;48.704;9.000;2022-12-07T01:24:45;19.20;;;10.00;;
9082;SDS011;4577;48.704;9.000;2022-12-07T01:27:12;12.43;;;9.00;;
9082;SDS011;4577;48.704;9.000;2022-12-07T01:29:38;14.93;;;10.47;;
9082;SDS011;4577;48.704;9.000;2022-12-07T01:32:05;13.57;;;9.70;;
9082;SDS011;4577;48.704;9.000;2022-12-07T01:34:30;16.70;;;10.27;;
9082;SDS011;4577;48.704;9.000;2022-12-07T01:36:56;21.13;;;10.70;;
9082;SDS011;4577;48.704;9.000;2022-12-07T01:39:22;14.47;;;10.60;;
9082;SDS011;4577;48.704;9.000;2022-12-07T01:41:49;18.90;;;10.40;;
9082;SDS011;4577;48.704;9.000;2022-12-07T01:44:22;15.90;;;10.53;;
9082;SDS011;4577;48.704;9.000;2022-12-07T01:46:51;15.03;;;10.57;;
9082;SDS011;4577;48.704;9.000;2022-12-07T01:49:39;13.93;;;10.40;;
9082;SDS011;4577;48.704;9.000;2022-12-07T01:52:07;15.00;;;10.67;;
9082;SDS011;4577;48.704;9.000;2022-12-07T01:54:36;15.23;;;10.13;;
9082;SDS011;4577;48.704;9.000;2022-12-07T01:57:04;14.40;;;10.03;;
9082;SDS011;4577;48.704;9.000;2022-12-07T01:59:33;15.43;;;10.00;;
9082;SDS011;4577;48.704;9.000;2022-12-07T02:01:59;16.90;;;10.60;;
9082;SDS011;4577;48.704;9.000;2022-12-07T02:04:29;17.00;;;10.30;;
9082;SDS011;4577;48.704;9.000;2022-12-07T02:06:55;14.53;;;10.27;;
9082;SDS011;4577;48.704;9.000;2022-12-07T02:09:22;13.63;;;10.23;;
9082;SDS011;4577;48.704;9.000;2022-12-07T02:11:50;15.40;;;10.50;;
9082;SDS011;4577;48.704;9.000;2022-12-07T02:14:17;17.20;;;10.40;;
9082;SDS011;4577;48.704;9.000;2022-12-07T02:16:51;14.13;;;10.47;;
9082;SDS011;4577;48.704;9.000;2022-12-07T02:19:51;15.60;;;9.93;;
9082;SDS011;4577;48.704;9.000;2022-12-07T02:30:37;14.40;;;9.80;;
9082;SDS011;4577;48.704;9.000;2022-12-07T02:33:19;13.30;;;9.23;;
9082;SDS011;4577;48.704;9.000;2022-12-07T02:35:50;12.27;;;8.70;;
9082;SDS011;4577;48.704;9.000;2022-12-07T02:41:01;13.70;;;8.90;;
9082;SDS011;4577;48.704;9.000;2022-12-07T02:43:40;11.20;;;8.50;;
9082;SDS011;4577;48.704;9.000;2022-12-07T02:46:17;12.37;;;9.07;;
9082;SDS011;4577;48.704;9.000;2022-12-07T02:48:47;12.33;;;8.70;;
9082;SDS011;4577;48.704;9.000;2022-12-07T02:51:13;11.93;;;8.40;;
9082;SDS011;4577;48.704;9.000;2022-12-07T02:56:29;19.03;;;12.00;;
9082;SDS011;4577;48.704;9.000;2022-12-07T03:04:48;29.17;;;16.90;;
9082;SDS011;4577;48.704;9.000;2022-12-07T03:10:36;19.27;;;10.83;;
9082;SDS011;4577;48.704;9.000;2022-12-07T03:15:29;14.40;;;9.57;;
9082;SDS011;4577;48.704;9.000;2022-12-07T03:17:58;12.70;;;8.77;;
9082;SDS011;4577;48.704;9.000;2022-12-07T03:20:32;13.47;;;8.73;;
9082;SDS011;4577;48.704;9.000;2022-12-07T03:22:59;12.03;;;8.50;;
9082;SDS011;4577;48.704;9.000;2022-12-07T03:25:25;13.47;;;9.70;;
9082;SDS011;4577;48.704;9.000;2022-12-07T03:27:54;14.73;;;8.77;;
9082;SDS011;4577;48.704;9.000;2022-12-07T03:30:32;14.20;;;9.63;;
9082;SDS011;4577;48.704;9.000;2022-12-07T03:33:15;11.93;;;9.00;;
9082;SDS011;4577;48.704;9.000;2022-12-07T03:35:45;15.10;;;10.40;;
9082;SDS011;4577;48.704;9.000;2022-12-07T03:38:18;13.03;;;9.43;;
9082;SDS011;4577;48.704;9.000;2022-12-07T03:40:58;12.10;;;8.57;;
9082;SDS011;4577;48.704;9.000;2022-12-07T03:43:45;15.80;;;10.47;;
9082;SDS011;4577;48.704;9.000;2022-12-07T03:48:51;14.87;;;9.53;;
9082;SDS011;4577;48.704;9.000;2022-12-07T03:51:25;11.97;;;8.83;;
9082;SDS011;4577;48.704;9.000;2022-12-07T03:53:54;21.97;;;13.07;;
9082;SDS011;4577;48.704;9.000;2022-12-07T03:56:30;22.27;;;12.40;;
9082;SDS011;4577;48.704;9.000;2022-12-07T03:58:57;16.77;;;10.23;;
9082;SDS011;4577;48.704;9.000;2022-12-07T04:01:24;13.30;;;9.47;;
9082;SDS011;4577;48.704;9.000;2022-12-07T04:03:49;12.67;;;9.20;;
9082;SDS011;4577;48.704;9.000;2022-12-07T04:06:15;15.37;;;9.67;;
9082;SDS011;4577;48.704;9.000;2022-12-07T04:08:41;12.93;;;9.17;;
9082;SDS011;4577;48.704;9.000;2022-12-07T04:11:08;12.40;;;8.50;;
9082;SDS011;4577;48.704;9.000;2022-12-07T04:13:34;13.17;;;8.27;;
9082;SDS011;4577;48.704;9.000;2022-12-07T04:16:19;11.80;;;8.63;;
9082;SDS011;4577;48.704;9.000;2022-12-07T04:18:45;11.47;;;8.20;;
9082;SDS011;4577;48.704;9.000;2022-12-07T04:21:11;10.63;;;7.83;;
9082;SDS011;4577;48.704;9.000;2022-12-07T04:23:37;10.17;;;7.30;;
9082;SDS011;4577;48.704;9.000;2022-12-07T04:26:03;11.60;;;7.53;;
9082;SDS011;4577;48.704;9.000;2022-12-07T04:28:29;10.20;;;7.67;;
9082;SDS011;4577;48.704;9.000;2022-12-07T04:30:55;11.00;;;7.73;;
9082;SDS011;4577;48.704;9.000;2022-12-07T04:33:21;12.57;;;8.53;;
9082;SDS011;4577;48.704;9.000;2022-12-07T04:35:47;13.43;;;8.83;;
9082;SDS011;4577;48.704;9.000;2022-12-07T04:38:13;13.30;;;8.70;;
9082;SDS011;4577;48.704;9.000;2022-12-07T04:40:39;10.90;;;8.30;;
9082;SDS011;4577;48.704;9.000;2022-12-07T04:43:05;11.87;;;8.23;;
9082;SDS011;4577;48.704;9.000;2022-12-07T04:45:31;13.33;;;8.33;;
9082;SDS011;4577;48.704;9.000;2022-12-07T04:47:56;15.43;;;8.13;;
9082;SDS011;4577;48.704;9.000;2022-12-07T04:50:22;15.50;;;8.90;;
9082;SDS011;4577;48.704;9.000;2022-12-07T04:52:47;13.73;;;8.43;;
9082;SDS011;4577;48.704;9.000;2022-12-07T04:55:13;11.80;;;8.70;;
9082;SDS011;4577;48.704;9.000;2022-12-07T04:57:40;11.17;;;8.20;;
9082;SDS011;4577;48.704;9.000;2022-12-07T05:00:06;12.50;;;8.53;;
9082;SDS011;4577;48.704;9.000;2022-12-07T05:02:32;12.27;;;8.50;;
9082;SDS011;4577;48.704;9.000;2022-12-07T05:04:58;11.30;;;8.43;;
9082;SDS011;4577;48.704;9.000;2022-12-07T05:07:24;14.17;;;8.83;;
9082;SDS011;4577;48.704;9.000;2022-12-07T05:09:50;12.07;;;8.00;;
9082;SDS011;4577;48.704;9.000;2022-12-07T05:12:16;15.60;;;7.80;;
9082;SDS011;4577;48.704;9.000;2022-12-07T05:14:42;10.80;;;7.90;;
9082;SDS011;4577;48.704;9.000;2022-12-07T05:17:08;9.97;;;7.80;;
9082;SDS011;4577;48.704;9.000;2022-12-07T05:19:34;9.33;;;6.73;;
9082;SDS011;4577;48.704;9.000;2022-12-07T05:22:00;10.57;;;6.93;;
9082;SDS011;4577;48.704;9.000;2022-12-07T05:24:26;11.33;;;6.50;;
9082;SDS011;4577;48.704;9.000;2022-12-07T05:26:52;12.20;;;6.70;;
9082;SDS011;4577;48.704;9.000;2022-12-07T05:29:18;8.77;;;6.77;;
9082;SDS011;4577;48.704;9.000;2022-12-07T05:31:44;9.20;;;6.70;;
9082;SDS011;4577;48.704;9.000;2022-12-07T05:34:10;10.87;;;6.70;;
9082;SDS011;4577;48.704;9.000;2022-12-07T05:36:36;9.50;;;6.90;;
9082;SDS011;4577;48.704;9.000;2022-12-07T05:39:01;10.10;;;6.80;;
9082;SDS011;4577;48.704;9.000;2022-12-07T05:41:27;12.43;;;7.00;;
9082;SDS011;4577;48.704;9.000;2022-12-07T05:44:12;10.97;;;6.63;;
9082;SDS011;4577;48.704;9.000;2022-12-07T05:46:37;11.57;;;7.03;;
9082;SDS011;4577;48.704;9.000;2022-12-07T05:49:03;10.60;;;6.93;;
9082;SDS011;4577;48.704;9.000;2022-12-07T05:51:29;9.00;;;6.50;;
9082;SDS011;4577;48.704;9.000;2022-12-07T05:53:54;8.83;;;6.73;;
9082;SDS011;4577;48.704;9.000;2022-12-07T05:56:20;13.00;;;7.60;;
9082;SDS011;4577;48.704;9.000;2022-12-07T05:58:46;10.27;;;7.47;;
9082;SDS011;4577;48.704;9.000;2022-12-07T06:01:31;11.67;;;8.10;;
9082;SDS011;4577;48.704;9.000;2022-12-07T06:03:56;11.33;;;7.43;;
9082;SDS011;4577;48.704;9.000;2022-12-07T06:06:22;11.57;;;7.63;;
9082;SDS011;4577;48.704;9.000;2022-12-07T06:08:48;13.90;;;7.70;;
9082;SDS011;4577;48.704;9.000;2022-12-07T06:11:14;10.67;;;7.47;;
9082;SDS011;4577;48.704;9.000;2022-12-07T06:13:58;11.43;;;7.70;;
9082;SDS011;4577;48.704;9.000;2022-12-07T06:16:24;11.53;;;7.20;;
9082;SDS011;4577;48.704;9.000;2022-12-07T06:18:49;7.17;;;5.50;;
9082;SDS011;4577;48.704;9.000;2022-12-07T06:21:15;9.60;;;5.87;;
9082;SDS011;4577;48.704;9.000;2022-12-07T06:23:41;9.13;;;6.50;;
9082;SDS011;4577;48.704;9.000;2022-12-07T06:26:07;7.40;;;5.77;;
9082;SDS011;4577;48.704;9.000;2022-12-07T06:28:33;8.37;;;5.40;;
9082;SDS011;4577;48.704;9.000;2022-12-07T06:31:00;7.80;;;5.60;;
9082;SDS011;4577;48.704;9.000;2022-12-07T06:33:26;10.00;;;6.57;;
9082;SDS011;4577;48.704;9.000;2022-12-07T06:35:52;10.47;;;6.90;;
9082;SDS011;4577;48.704;9.000;2022-12-07T06:38:19;7.80;;;5.70;;
9082;SDS011;4577;48.704;9.000;2022-12-07T06:40:45;7.60;;;5.07;;
9082;SDS011;4577;48.704;9.000;2022-12-07T06:43:10;9.30;;;5.47;;
9082;SDS011;4577;48.704;9.000;2022-12-07T06:45:36;10.00;;;5.40;;
9082;SDS011;4577;48.704;9.000;2022-12-07T06:48:02;8.60;;;5.83;;
9082;SDS011;4577;48.704;9.000;2022-12-07T06:50:28;10.57;;;6.53;;
9082;SDS011;4577;48.704;9.000;2022-12-07T06:52:54;13.83;;;8.10;;
9082;SDS011;4577;48.704;9.000;2022-12-07T06:55:20;17.93;;;9.03;;
9082;SDS011;4577;48.704;9.000;2022-12-07T06:57:46;14.20;;;8.80;;
9082;SDS011;4577;48.704;9.000;2022-12-07T07:00:11;16.63;;;9.47;;
9082;SDS011;4577;48.704;9.000;2022-12-07T07:02:38;16.80;;;10.13;;
9082;SDS011;4577;48.704;9.000;2022-12-07T07:05:04;16.73;;;9.93;;
9082;SDS011;4577;48.704;9.000;2022-12-07T07:07:30;24.97;;;10.13;;
9082;SDS011;4577;48.704;9.000;2022-12-07T07:09:56;17.00;;;9.67;;
9082;SDS011;4577;48.704;9.000;2022-12-07T07:12:21;20.27;;;10.20;;
9082;SDS011;4577;48.704;9.000;2022-12-07T07:14:47;22.70;;;10.77;;
9082;SDS011;4577;48.704;9.000;2022-12-07T07:17:13;14.60;;;9.33;;
9082;SDS011;4577;48.704;9.000;2022-12-07T07:19:39;43.03;;;14.37;;
9082;SDS011;4577;48.704;9.000;2022-12-07T07:22:08;21.07;;;10.47;;
9082;SDS011;4577;48.704;9.000;2022-12-07T07:24:34;15.57;;;10.07;;
9082;SDS011;4577;48.704;9.000;2022-12-07T07:27:00;14.63;;;9.20;;
9082;SDS011;4577;48.704;9.000;2022-12-07T07:29:26;25.43;;;11.13;;
9082;SDS011;4577;48.704;9.000;2022-12-07T07:31:52;17.47;;;10.40;;
9082;SDS011;4577;48.704;9.000;2022-12-07T07:34:18;54.90;;;12.90;;
9082;SDS011;4577;48.704;9.000;2022-12-07T07:36:44;50.00;;;13.07;;
9082;SDS011;4577;48.704;9.000;2022-12-07T07:39:10;23.03;;;10.30;;
9082;SDS011;4577;48.704;9.000;2022-12-07T07:41:39;34.23;;;8.90;;
9082;SDS011;4577;48.704;9.000;2022-12-07T07:44:05;34.47;;;10.50;;
9082;SDS011;4577;48.704;9.000;2022-12-07T07:46:31;16.17;;;8.13;;
9082;SDS011;4577;48.704;9.000;2022-12-07T07:48:58;15.97;;;7.10;;
9082;SDS011;4577;48.704;9.000;2022-12-07T07:51:24;24.00;;;8.20;;
9082;SDS011;4577;48.704;9.000;2022-12-07T07:53:50;9.00;;;6.27;;
9082;SDS011;4577;48.704;9.000;2022-12-07T07:56:15;13.10;;;7.23;;
9082;SDS011;4577;48.704;9.000;2022-12-07T07:58:41;13.33;;;7.17;;
9082;SDS011;4577;48.704;9.000;2022-12-07T08:01:07;10.50;;;6.57;;
9082;SDS011;4577;48.704;9.000;2022-12-07T08:03:34;11.60;;;6.40;;
9082;SDS011;4577;48.704;9.000;2022-12-07T08:06:01;19.57;;;8.00;;
9082;SDS011;4577;48.704;9.000;2022-12-07T08:08:30;22.43;;;8.10;;
9082;SDS011;4577;48.704;9.000;2022-12-07T08:10:56;13.03;;;7.93;;
9082;SDS011;4577;48.704;9.000;2022-12-07T08:13:25;14.13;;;8.17;;
9082;SDS011;4577;48.704;9.000;2022-12-07T08:15:51;24.43;;;8.57;;
9082;SDS011;4577;48.704;9.000;2022-12-07T08:18:17;16.03;;;8.33;;
9082;SDS011;4577;48.704;9.000;2022-12-07T08:20:43;15.70;;;7.87;;
9082;SDS011;4577;48.704;9.000;2022-12-07T08:23:10;16.70;;;7.53;;
9082;SDS011;4577;48.704;9.000;2022-12-07T08:25:36;13.27;;;7.67;;
9082;SDS011;4577;48.704;9.000;2022-12-07T08:28:02;13.77;;;7.77;;
9082;SDS011;4577;48.704;9.000;2022-12-07T08:30:28;23.20;;;10.33;;
9082;SDS011;4577;48.704;9.000;2022-12-07T08:32:54;13.90;;;7.60;;
9082;SDS011;4577;48.704;9.000;2022-12-07T08:35:21;10.03;;;7.40;;
9082;SDS011;4577;48.704;9.000;2022-12-07T08:37:47;21.10;;;8.50;;
9082;SDS011;4577;48.704;9.000;2022-12-07T08:40:13;19.67;;;8.40;;
9082;SDS011;4577;48.704;9.000;2022-12-07T08:42:43;16.43;;;8.40;;
9082;SDS011;4577;48.704;9.000;2022-12-07T08:45:10;16.63;;;8.03;;
9082;SDS011;4577;48.704;9.000;2022-12-07T08:47:38;18.20;;;7.90;;
9082;SDS011;4577;48.704;9.000;2022-12-07T08:50:13;21.07;;;7.97;;
9082;SDS011;4577;48.704;9.000;2022-12-07T08:52:40;8.13;;;5.70;;
9082;SDS011;4577;48.704;9.000;2022-12-07T08:55:07;10.70;;;6.10;;
9082;SDS011;4577;48.704;9.000;2022-12-07T08:57:34;10.33;;;5.10;;
9082;SDS011;4577;48.704;9.000;2022-12-07T09:00:01;10.10;;;6.47;;
9082;SDS011;4577;48.704;9.000;2022-12-07T09:02:28;10.47;;;6.07;;
9082;SDS011;4577;48.704;9.000;2022-12-07T09:04:54;12.47;;;5.90;;
9082;SDS011;4577;48.704;9.000;2022-12-07T09:07:19;8.80;;;5.73;;
9082;SDS011;4577;48.704;9.000;2022-12-07T09:09:46;9.50;;;5.83;;
9082;SDS011;4577;48.704;9.000;2022-12-07T09:12:12;47.80;;;11.00;;
9082;SDS011;4577;48.704;9.000;2022-12-07T09:14:38;9.30;;;5.87;;
9082;SDS011;4577;48.704;9.000;2022-12-07T09:17:07;13.23;;;6.70;;
9082;SDS011;4577;48.704;9.000;2022-12-07T09:19:35;12.27;;;6.10;;
9082;SDS011;4577;48.704;9.000;2022-12-07T09:22:01;13.30;;;7.00;;
9082;SDS011;4577;48.704;9.000;2022-12-07T09:24:27;19.57;;;6.80;;
9082;SDS011;4577;48.704;9.000;2022-12-07T09:26:53;32.87;;;8.40;;
9082;SDS011;4577;48.704;9.000;2022-12-07T09:29:19;71.23;;;12.70;;
9082;SDS011;4577;48.704;9.000;2022-12-07T09:31:45;16.00;;;6.57;;
9082;SDS011;4577;48.704;9.000;2022-12-07T09:34:11;9.20;;;5.57;;
9082;SDS011;4577;48.704;9.000;2022-12-07T09:36:37;13.77;;;6.60;;
9082;SDS011;4577;48.704;9.000;2022-12-07T09:39:03;14.23;;;6.10;;
9082;SDS011;4577;48.704;9.000;2022-12-07T09:41:30;15.80;;;7.20;;
9082;SDS011;4577;48.704;9.000;2022-12-07T09:44:04;9.67;;;5.83;;
9082;SDS011;4577;48.704;9.000;2022-12-07T09:46:32;10.73;;;6.30;;
9082;SDS011;4577;48.704;9.000;2022-12-07T09:49:00;8.37;;;4.87;;
9082;SDS011;4577;48.704;9.000;2022-12-07T09:51:27;7.67;;;5.33;;
9082;SDS011;4577;48.704;9.000;2022-12-07T09:53:53;17.93;;;5.80;;
9082;SDS011;4577;48.704;9.000;2022-12-07T09:56:21;12.47;;;5.23;;
9082;SDS011;4577;48.704;9.000;2022-12-07T09:58:48;19.53;;;6.30;;
9082;SDS011;4577;48.704;9.000;2022-12-07T10:01:16;10.43;;;5.57;;
9082;SDS011;4577;48.704;9.000;2022-12-07T10:03:47;34.77;;;8.17;;
9082;SDS011;4577;48.704;9.000;2022-12-07T10:06:14;45.77;;;8.13;;
9082;SDS011;4577;48.704;9.000;2022-12-07T10:08:40;67.77;;;7.87;;
9082;SDS011;4577;48.704;9.000;2022-12-07T10:11:10;11.57;;;5.80;;
9082;SDS011;4577;48.704;9.000;2022-12-07T10:13:38;26.73;;;6.10;;
9082;SDS011;4577;48.704;9.000;2022-12-07T10:16:04;10.20;;;5.40;;
9082;SDS011;4577;48.704;9.000;2022-12-07T10:18:32;9.53;;;5.30;;
9082;SDS011;4577;48.704;9.000;2022-12-07T10:21:11;9.50;;;5.73;;
9082;SDS011;4577;48.704;9.000;2022-12-07T10:23:41;4.77;;;3.87;;
9082;SDS011;4577;48.704;9.000;2022-12-07T10:26:38;11.83;;;5.30;;
9082;SDS011;4577;48.704;9.000;2022-12-07T10:29:28;24.63;;;7.57;;
9082;SDS011;4577;48.704;9.000;2022-12-07T10:34:42;6.40;;;4.63;;
9082;SDS011;4577;48.704;9.000;2022-12-07T10:42:20;8.30;;;5.10;;
9082;SDS011;4577;48.704;9.000;2022-12-07T11:07:18;18.53;;;6.40;;
9082;SDS011;4577;48.704;9.000;2022-12-07T11:16:07;11.67;;;5.00;;
9082;SDS011;4577;48.704;9.000;2022-12-07T11:18:44;13.73;;;5.40;;
9082;SDS011;4577;48.704;9.000;2022-12-07T11:23:54;29.10;;;7.27;;
9082;SDS011;4577;48.704;9.000;2022-12-07T11:36:51;20.80;;;5.93;;
9082;SDS011;4577;48.704;9.000;2022-12-07T11:41:46;12.97;;;4.90;;
9082;SDS011;4577;48.704;9.000;2022-12-07T11:46:47;8.67;;;4.33;;
9082;SDS011;4577;48.704;9.000;2022-12-07T11:52:06;11.80;;;5.00;;
9082;SDS011;4577;48.704;9.000;2022-12-07T11:54:52;6.20;;;4.00;;
9082;SDS011;4577;48.704;9.000;2022-12-07T11:57:33;5.67;;;4.27;;
9082;SDS011;4577;48.704;9.000;2022-12-07T12:00:05;7.67;;;4.60;;
9082;SDS011;4577;48.704;9.000;2022-12-07T12:02:59;4.87;;;4.10;;
9082;SDS011;4577;48.704;9.000;2022-12-07T12:05:29;8.93;;;4.43;;
9082;SDS011;4577;48.704;9.000;2022-12-07T12:08:15;6.10;;;4.60;;
9082;SDS011;4577;48.704;9.000;2022-12-07T12:16:17;3.60;;;3.30;;
9082;SDS011;4577;48.704;9.000;2022-12-07T12:21:29;3.63;;;3.07;;
9082;SDS011;4577;48.704;9.000;2022-12-07T12:26:24;5.23;;;3.07;;
9082;SDS011;4577;48.704;9.000;2022-12-07T12:33:46;3.57;;;2.93;;
9082;SDS011;4577;48.704;9.000;2022-12-07T12:46:56;5.87;;;2.90;;
9082;SDS011;4577;48.704;9.000;2022-12-07T12:49:33;4.13;;;3.17;;
9082;SDS011;4577;48.704;9.000;2022-12-07T12:57:46;4.63;;;3.37;;
9082;SDS011;4577;48.704;9.000;2022-12-07T13:00:32;4.23;;;3.00;;
9082;SDS011;4577;48.704;9.000;2022-12-07T13:02:58;3.10;;;2.80;;
9082;SDS011;4577;48.704;9.000;2022-12-07T13:05:25;5.87;;;2.70;;
9082;SDS011;4577;48.704;9.000;2022-12-07T13:08:14;6.73;;;2.90;;
9082;SDS011;4577;48.704;9.000;2022-12-07T13:10:49;3.53;;;3.23;;
9082;SDS011;4577;48.704;9.000;2022-12-07T13:18:23;9.70;;;3.60;;
9082;SDS011;4577;48.704;9.000;2022-12-07T13:21:02;15.30;;;4.47;;
9082;SDS011;4577;48.704;9.000;2022-12-07T13:23:31;7.60;;;4.07;;
9082;SDS011;4577;48.704;9.000;2022-12-07T13:26:23;9.23;;;3.60;;
9082;SDS011;4577;48.704;9.000;2022-12-07T13:31:33;13.53;;;5.20;;
9082;SDS011;4577;48.704;9.000;2022-12-07T13:34:04;11.30;;;5.17;;
9082;SDS011;4577;48.704;9.000;2022-12-07T13:36:50;18.77;;;6.87;;
9082;SDS011;4577;48.704;9.000;2022-12-07T13:39:20;18.17;;;6.40;;
9082;SDS011;4577;48.704;9.000;2022-12-07T13:41:49;4.87;;;3.50;;
9082;SDS011;4577;48.704;9.000;2022-12-07T13:44:17;7.47;;;3.67;;
9082;SDS011;4577;48.704;9.000;2022-12-07T13:47:03;14.23;;;3.77;;
9082;SDS011;4577;48.704;9.000;2022-12-07T13:49:48;6.30;;;3.23;;
9082;SDS011;4577;48.704;9.000;2022-12-07T13:52:18;5.10;;;3.47;;
9082;SDS011;4577;48.704;9.000;2022-12-07T13:54:56;5.17;;;3.43;;
9082;SDS011;4577;48.704;9.000;2022-12-07T13:57:24;6.67;;;3.90;;
9082;SDS011;4577;48.704;9.000;2022-12-07T13:59:52;6.10;;;3.90;;
9082;SDS011;4577;48.704;9.000;2022-12-07T14:04:45;40.67;;;9.60;;
9082;SDS011;4577;48.704;9.000;2022-12-07T14:07:20;22.23;;;10.03;;
9082;SDS011;4577;48.704;9.000;2022-12-07T14:12:24;6.17;;;4.20;;
9082;SDS011;4577;48.704;9.000;2022-12-07T14:14:51;7.10;;;5.30;;
9082;SDS011;4577;48.704;9.000;2022-12-07T14:17:18;9.23;;;6.10;;
9082;SDS011;4577;48.704;9.000;2022-12-07T14:19:57;4.73;;;4.00;;
9082;SDS011;4577;48.704;9.000;2022-12-07T14:24:58;4.53;;;3.80;;
9082;SDS011;4577;48.704;9.000;2022-12-07T14:27:24;6.27;;;4.40;;
9082;SDS011;4577;48.704;9.000;2022-12-07T14:29:55;7.43;;;5.00;;
9082;SDS011;4577;48.704;9.000;2022-12-07T14:32:26;6.67;;;4.10;;
9082;SDS011;4577;48.704;9.000;2022-12-07T14:34:58;23.87;;;13.70;;
9082;SDS011;4577;48.704;9.000;2022-12-07T14:37:25;8.00;;;5.30;;
9082;SDS011;4577;48.704;9.000;2022-12-07T14:39:51;7.27;;;4.60;;
9082;SDS011;4577;48.704;9.000;2022-12-07T14:42:18;5.70;;;4.53;;
9082;SDS011;4577;48.704;9.000;2022-12-07T14:44:44;7.80;;;5.30;;
9082;SDS011;4577;48.704;9.000;2022-12-07T14:47:10;8.17;;;5.83;;
9082;SDS011;4577;48.704;9.000;2022-12-07T14:49:36;5.60;;;4.60;;
9082;SDS011;4577;48.704;9.000;2022-12-07T14:52:02;8.13;;;5.07;;
9082;SDS011;4577;48.704;9.000;2022-12-07T14:54:30;9.43;;;5.37;;
9082;SDS011;4577;48.704;9.000;2022-12-07T14:56:57;8.07;;;5.13;;
9082;SDS011;4577;48.704;9.000;2022-12-07T14:59:23;8.90;;;5.77;;
9082;SDS011;4577;48.704;9.000;2022-12-07T15:01:49;6.80;;;4.70;;
9082;SDS011;4577;48.704;9.000;2022-12-07T15:04:16;8.20;;;5.60;;
9082;SDS011;4577;48.704;9.000;2022-12-07T15:06:48;9.33;;;6.30;;
9082;SDS011;4577;48.704;9.000;2022-12-07T15:09:23;9.10;;;6.07;;
9082;SDS011;4577;48.704;9.000;2022-12-07T15:11:49;7.57;;;5.53;;
9082;SDS011;4577;48.704;9.000;2022-12-07T15:14:15;7.80;;;5.73;;
9082;SDS011;4577;48.704;9.000;2022-12-07T15:16:41;11.97;;;6.33;;
9082;SDS011;4577;48.704;9.000;2022-12-07T15:19:10;8.83;;;6.10;;
9082;SDS011;4577;48.704;9.000;2022-12-07T15:21:39;8.10;;;5.87;;
9082;SDS011;4577;48.704;9.000;2022-12-07T15:24:05;8.70;;;6.33;;
9082;SDS011;4577;48.704;9.000;2022-12-07T15:26:31;9.60;;;7.00;;
9082;SDS011;4577;48.704;9.000;2022-12-07T15:28:57;17.30;;;7.30;;
9082;SDS011;4577;48.704;9.000;2022-12-07T15:31:23;13.93;;;7.07;;
9082;SDS011;4577;48.704;9.000;2022-12-07T15:33:49;9.17;;;6.80;;
9082;SDS011;4577;48.704;9.000;2022-12-07T15:36:18;10.97;;;6.70;;
9082;SDS011;4577;48.704;9.000;2022-12-07T15:38:49;9.93;;;6.80;;
9082;SDS011;4577;48.704;9.000;2022-12-07T15:41:18;9.90;;;6.47;;
9082;SDS011;4577;48.704;9.000;2022-12-07T15:43:44;10.33;;;7.37;;
9082;SDS011;4577;48.704;9.000;2022-12-07T15:46:29;10.70;;;7.93;;
9082;SDS011;4577;48.704;9.000;2022-12-07T15:48:56;12.70;;;7.50;;
9082;SDS011;4577;48.704;9.000;2022-12-07T15:51:22;11.97;;;7.80;;
9082;SDS011;4577;48.704;9.000;2022-12-07T15:53:49;12.93;;;8.80;;
9082;SDS011;4577;48.704;9.000;2022-12-07T15:56:15;14.03;;;8.37;;
9082;SDS011;4577;48.704;9.000;2022-12-07T15:58:41;13.70;;;9.17;;
9082;SDS011;4577;48.704;9.000;2022-12-07T16:01:11;11.80;;;7.60;;
9082;SDS011;4577;48.704;9.000;2022-12-07T16:03:37;14.77;;;9.40;;
9082;SDS011;4577;48.704;9.000;2022-12-07T16:06:03;12.43;;;8.47;;
9082;SDS011;4577;48.704;9.000;2022-12-07T16:08:29;13.43;;;8.43;;
9082;SDS011;4577;48.704;9.000;2022-12-07T16:10:55;12.37;;;7.83;;
9082;SDS011;4577;48.704;9.000;2022-12-07T16:13:21;12.37;;;8.43;;
9082;SDS011;4577;48.704;9.000;2022-12-07T16:15:48;14.13;;;9.50;;
9082;SDS011;4577;48.704;9.000;2022-12-07T16:18:14;13.50;;;9.03;;
9082;SDS011;4577;48.704;9.000;2022-12-07T16:20:40;11.27;;;8.17;;
9082;SDS011;4577;48.704;9.000;2022-12-07T16:23:06;12.60;;;8.00;;
9082;SDS011;4577;48.704;9.000;2022-12-07T16:25:32;14.07;;;8.40;;
9082;SDS011;4577;48.704;9.000;2022-12-07T16:27:58;11.50;;;7.90;;
9082;SDS011;4577;48.704;9.000;2022-12-07T16:30:24;13.10;;;8.30;;
9082;SDS011;4577;48.704;9.000;2022-12-07T16:32:50;13.90;;;8.27;;
9082;SDS011;4577;48.704;9.000;2022-12-07T16:35:16;12.93;;;7.97;;
9082;SDS011;4577;48.704;9.000;2022-12-07T16:37:43;11.90;;;8.20;;
9082;SDS011;4577;48.704;9.000;2022-12-07T16:40:11;14.90;;;9.10;;
9082;SDS011;4577;48.704;9.000;2022-12-07T16:42:37;16.00;;;9.47;;
9082;SDS011;4577;48.704;9.000;2022-12-07T16:45:03;15.27;;;10.00;;
9082;SDS011;4577;48.704;9.000;2022-12-07T16:47:30;14.13;;;8.63;;
9082;SDS011;4577;48.704;9.000;2022-12-07T16:49:56;16.23;;;9.37;;
9082;SDS011;4577;48.704;9.000;2022-12-07T16:52:22;13.93;;;9.30;;
9082;SDS011;4577;48.704;9.000;2022-12-07T16:54:48;13.60;;;8.97;;
9082;SDS011;4577;48.704;9.000;2022-12-07T16:57:15;14.70;;;9.30;;
9082;SDS011;4577;48.704;9.000;2022-12-07T16:59:41;12.23;;;8.23;;
9082;SDS011;4577;48.704;9.000;2022-12-07T17:02:09;19.87;;;8.70;;
9082;SDS011;4577;48.704;9.000;2022-12-07T17:04:36;13.50;;;8.63;;
9082;SDS011;4577;48.704;9.000;2022-12-07T17:07:04;18.63;;;8.60;;
9082;SDS011;4577;48.704;9.000;2022-12-07T17:09:30;12.93;;;8.20;;
9082;SDS011;4577;48.704;9.000;2022-12-07T17:11:57;13.27;;;8.27;;
9082;SDS011;4577;48.704;9.000;2022-12-07T17:14:22;17.40;;;8.20;;
9082;SDS011;4577;48.704;9.000;2022-12-07T17:17:07;13.63;;;8.70;;
9082;SDS011;4577;48.704;9.000;2022-12-07T17:19:33;13.97;;;8.47;;
9082;SDS011;4577;48.704;9.000;2022-12-07T17:21:59;15.33;;;9.03;;
9082;SDS011;4577;48.704;9.000;2022-12-07T17:24:24;15.03;;;9.10;;